createdAt,value
2018-05-27T00:00:44.528Z,21.03
2018-05-27T00:03:11.263Z,21.80
2018-05-27T00:05:38.028Z,20.80
2018-05-27T00:08:04.775Z,21.10
2018-05-27T00:10:31.512Z,21.80
2018-05-27T00:12:58.251Z,18.77
2018-05-27T00:15:24.976Z,20.80
2018-05-27T00:17:51.716Z,21.93
2018-05-27T00:20:18.447Z,20.53
2018-05-27T00:22:45.176Z,20.70
2018-05-27T00:25:11.921Z,20.00
2018-05-27T00:27:38.651Z,20.23
2018-05-27T00:30:05.388Z,19.37
2018-05-27T00:32:32.132Z,20.57
2018-05-27T00:34:58.855Z,21.00
2018-05-27T00:37:25.594Z,20.90
2018-05-27T00:39:52.395Z,19.93
2018-05-27T00:42:19.121Z,18.53
2018-05-27T00:44:45.849Z,19.93
2018-05-27T00:47:12.583Z,17.23
2018-05-27T00:49:39.564Z,20.23
2018-05-27T00:52:06.289Z,19.90
2018-05-27T00:54:33.037Z,21.10
2018-05-27T00:56:59.760Z,22.40
2018-05-27T00:59:26.519Z,22.47
2018-05-27T01:01:53.265Z,21.40
2018-05-27T01:04:19.986Z,21.63
2018-05-27T01:06:46.740Z,21.10
2018-05-27T01:09:13.480Z,21.17
2018-05-27T01:11:40.379Z,22.37
2018-05-27T01:14:07.174Z,22.67
2018-05-27T01:16:34.008Z,21.43
2018-05-27T01:19:00.789Z,21.47
2018-05-27T01:21:27.613Z,22.00
2018-05-27T01:23:54.437Z,20.87
2018-05-27T01:26:21.161Z,21.80
2018-05-27T01:28:47.915Z,21.90
2018-05-27T01:31:14.761Z,21.70
2018-05-27T01:33:41.497Z,23.07
2018-05-27T01:36:08.277Z,22.80
2018-05-27T01:38:35.055Z,22.87
2018-05-27T01:41:01.797Z,21.67
2018-05-27T01:43:28.577Z,21.80
2018-05-27T01:45:55.308Z,22.20
2018-05-27T01:48:22.027Z,21.83
2018-05-27T01:50:48.756Z,23.50
2018-05-27T01:53:15.515Z,21.40
2018-05-27T01:55:42.238Z,22.40
2018-05-27T01:58:09.063Z,22.43
2018-05-27T02:00:35.859Z,22.60
2018-05-27T02:03:02.694Z,22.67
2018-05-27T02:05:29.415Z,21.63
2018-05-27T02:07:56.530Z,22.40
2018-05-27T02:10:23.310Z,22.73
2018-05-27T02:12:50.057Z,23.97
2018-05-27T02:15:16.798Z,21.83
2018-05-27T02:17:43.532Z,23.53
2018-05-27T02:20:10.256Z,21.70
2018-05-27T02:22:37.012Z,22.23
2018-05-27T02:25:03.736Z,20.97
2018-05-27T02:27:30.473Z,20.87
2018-05-27T02:29:57.208Z,22.53
2018-05-27T02:32:23.948Z,21.90
2018-05-27T02:34:50.679Z,23.53
2018-05-27T02:37:17.416Z,22.33
2018-05-27T02:39:44.144Z,20.90
2018-05-27T02:42:10.871Z,19.93
2018-05-27T02:44:37.603Z,20.20
2018-05-27T02:47:04.332Z,20.90
2018-05-27T02:49:31.167Z,21.60
2018-05-27T02:51:57.899Z,21.30
2018-05-27T02:54:24.619Z,23.73
2018-05-27T02:56:51.383Z,21.90
2018-05-27T02:59:18.124Z,22.10
2018-05-27T03:01:45.704Z,22.00
2018-05-27T03:04:12.427Z,21.73
2018-05-27T03:06:39.266Z,19.93
2018-05-27T03:09:06.113Z,19.83
2018-05-27T03:11:32.829Z,21.03
2018-05-27T03:13:59.590Z,19.73
2018-05-27T03:16:26.315Z,18.77
2018-05-27T03:18:53.069Z,20.20
2018-05-27T03:21:19.905Z,18.63
2018-05-27T03:23:46.632Z,20.40
2018-05-27T03:26:13.392Z,19.03
2018-05-27T03:28:40.136Z,19.63
2018-05-27T03:31:06.890Z,20.00
2018-05-27T03:33:33.612Z,20.57
2018-05-27T03:36:00.350Z,21.10
2018-05-27T03:38:27.072Z,21.67
2018-05-27T03:40:53.795Z,22.33
2018-05-27T03:43:20.535Z,23.07
2018-05-27T03:45:47.260Z,26.23
2018-05-27T03:48:13.986Z,27.07
2018-05-27T03:50:40.739Z,28.30
2018-05-27T03:53:07.480Z,25.23
2018-05-27T03:55:34.519Z,25.90
2018-05-27T03:58:01.643Z,26.23
2018-05-27T04:00:28.375Z,24.13
2018-05-27T04:02:55.119Z,25.53
2018-05-27T04:05:27.915Z,24.47
2018-05-27T04:08:01.077Z,25.27
2018-05-27T04:10:27.824Z,24.20
2018-05-27T04:12:54.558Z,23.77
2018-05-27T04:15:21.324Z,23.00
2018-05-27T04:17:48.058Z,20.97
2018-05-27T04:20:14.784Z,21.67
2018-05-27T04:22:41.535Z,21.07
2018-05-27T04:25:08.290Z,22.30
2018-05-27T04:27:35.141Z,21.53
2018-05-27T04:30:01.866Z,20.27
2018-05-27T04:32:28.609Z,20.67
2018-05-27T04:34:55.326Z,18.60
2018-05-27T04:37:22.063Z,17.57
2018-05-27T04:39:48.828Z,17.50
2018-05-27T04:42:15.659Z,19.20
2018-05-27T04:44:42.545Z,18.07
2018-05-27T04:47:09.343Z,17.90
2018-05-27T04:49:36.088Z,17.20
2018-05-27T04:52:02.837Z,16.30
2018-05-27T04:54:29.670Z,16.23
2018-05-27T04:56:56.392Z,15.87
2018-05-27T04:59:23.174Z,15.83
2018-05-27T05:01:49.905Z,16.80
2018-05-27T05:04:16.732Z,17.23
2018-05-27T05:06:43.466Z,17.40
2018-05-27T05:09:10.222Z,19.37
2018-05-27T05:11:36.969Z,18.13
2018-05-27T05:14:03.705Z,19.47
2018-05-27T05:16:30.438Z,18.57
2018-05-27T05:18:57.180Z,16.00
2018-05-27T05:21:23.914Z,16.80
2018-05-27T05:23:50.765Z,17.40
2018-05-27T05:26:17.501Z,16.60
2018-05-27T05:28:44.240Z,16.47
2018-05-27T05:31:10.988Z,17.50
2018-05-27T05:33:37.717Z,17.63
2018-05-27T05:36:04.459Z,16.50
2018-05-27T05:38:31.200Z,17.63
2018-05-27T05:40:57.924Z,16.60
2018-05-27T05:43:24.644Z,13.27
2018-05-27T05:45:51.380Z,15.43
2018-05-27T05:48:18.108Z,15.90
2018-05-27T05:50:45.148Z,14.40
2018-05-27T05:53:11.953Z,14.80
2018-05-27T05:55:38.695Z,15.27
2018-05-27T05:58:05.432Z,14.73
2018-05-27T06:00:32.175Z,14.80
2018-05-27T06:02:58.928Z,14.30
2018-05-27T06:05:25.793Z,14.27
2018-05-27T06:07:52.719Z,14.00
2018-05-27T06:10:19.439Z,10.40
2018-05-27T06:12:46.284Z,14.30
2018-05-27T06:15:13.030Z,12.40
2018-05-27T06:17:39.748Z,15.37
2018-05-27T06:20:06.510Z,15.63
2018-05-27T06:22:33.249Z,15.97
2018-05-27T06:25:00.461Z,15.80
2018-05-27T06:27:27.191Z,15.43
2018-05-27T06:29:53.919Z,10.60
2018-05-27T06:32:20.651Z,13.50
2018-05-27T06:34:47.379Z,12.00
2018-05-27T06:37:14.199Z,13.63
2018-05-27T06:39:41.040Z,14.77
2018-05-27T06:42:07.983Z,13.70
2018-05-27T06:44:34.806Z,13.90
2018-05-27T06:47:01.542Z,13.50
2018-05-27T06:49:28.273Z,14.57
2018-05-27T06:51:55.050Z,11.40
2018-05-27T06:54:21.789Z,13.23
2018-05-27T06:56:48.604Z,13.37
2018-05-27T06:59:15.356Z,11.63
2018-05-27T07:01:42.076Z,12.00
2018-05-27T07:04:08.804Z,11.87
2018-05-27T07:06:35.546Z,11.47
2018-05-27T07:09:02.275Z,12.53
2018-05-27T07:11:29.048Z,11.10
2018-05-27T07:13:55.812Z,10.53
2018-05-27T07:16:22.541Z,10.40
2018-05-27T07:18:49.267Z,11.50
2018-05-27T07:21:16.011Z,10.37
2018-05-27T07:23:42.737Z,10.80
2018-05-27T07:26:09.473Z,10.10
2018-05-27T07:28:36.211Z,9.23
2018-05-27T07:31:02.938Z,9.70
2018-05-27T07:33:29.724Z,9.57
2018-05-27T07:35:56.476Z,8.80
2018-05-27T07:38:23.214Z,8.80
2018-05-27T07:40:49.954Z,8.50
2018-05-27T07:43:16.907Z,9.70
2018-05-27T07:45:43.628Z,8.67
2018-05-27T07:48:10.356Z,9.20
2018-05-27T07:50:37.083Z,8.97
2018-05-27T07:53:03.799Z,9.27
2018-05-27T07:55:30.596Z,9.10
2018-05-27T07:57:57.340Z,8.20
2018-05-27T08:00:24.083Z,8.80
2018-05-27T08:02:50.811Z,8.20
2018-05-27T08:05:17.560Z,9.03
2018-05-27T08:07:44.527Z,8.27
2018-05-27T08:10:11.283Z,7.20
2018-05-27T08:12:38.011Z,8.40
2018-05-27T08:15:04.745Z,8.00
2018-05-27T08:17:31.473Z,8.30
2018-05-27T08:19:58.287Z,9.00
2018-05-27T08:22:24.939Z,8.40
2018-05-27T08:24:51.655Z,7.90
2018-05-27T08:27:18.376Z,8.73
2018-05-27T08:29:45.107Z,11.53
2018-05-27T08:32:11.838Z,13.63
2018-05-27T08:34:38.609Z,8.30
2018-05-27T08:37:05.635Z,7.70
2018-05-27T08:39:32.345Z,7.47
2018-05-27T08:41:59.087Z,8.20
2018-05-27T08:44:25.906Z,8.23
2018-05-27T08:46:52.652Z,7.73
2018-05-27T08:49:19.384Z,7.90
2018-05-27T08:51:46.100Z,8.60
2018-05-27T08:54:12.815Z,7.90
2018-05-27T08:56:39.609Z,7.80
2018-05-27T08:59:06.324Z,8.10
2018-05-27T09:01:33.105Z,7.10
2018-05-27T09:03:59.831Z,7.80
2018-05-27T09:06:26.547Z,7.10
2018-05-27T09:08:53.290Z,6.77
2018-05-27T09:11:20.081Z,8.30
2018-05-27T09:13:46.913Z,7.40
2018-05-27T09:16:13.629Z,7.50
2018-05-27T09:18:40.371Z,6.60
2018-05-27T09:21:07.087Z,7.40
2018-05-27T09:23:33.817Z,14.57
2018-05-27T09:26:00.694Z,7.50
2018-05-27T09:28:27.403Z,7.73
2018-05-27T09:30:54.178Z,6.50
2018-05-27T09:33:20.859Z,6.70
2018-05-27T09:35:47.581Z,7.50
2018-05-27T09:38:14.398Z,6.47
2018-05-27T09:40:41.200Z,7.10
2018-05-27T09:43:07.910Z,6.10
2018-05-27T09:45:34.748Z,6.40
2018-05-27T09:48:01.453Z,6.80
2018-05-27T09:50:28.186Z,6.10
2018-05-27T09:52:54.904Z,5.80
2018-05-27T09:55:21.676Z,4.90
2018-05-27T09:57:48.448Z,6.53
2018-05-27T10:00:15.172Z,6.37
2018-05-27T10:02:41.899Z,5.60
2018-05-27T10:05:08.639Z,5.97
2018-05-27T10:07:35.364Z,5.80
2018-05-27T10:10:02.092Z,5.80
2018-05-27T10:12:28.818Z,5.80
2018-05-27T10:14:55.535Z,6.33
2018-05-27T10:17:22.281Z,6.07
2018-05-27T10:19:48.997Z,5.90
2018-05-27T10:22:15.773Z,6.40
2018-05-27T10:24:42.513Z,5.60
2018-05-27T10:27:09.235Z,5.10
2018-05-27T10:29:35.955Z,6.00
2018-05-27T10:32:03.272Z,6.43
2018-05-27T10:34:29.997Z,5.83
2018-05-27T10:36:56.719Z,20.53
2018-05-27T10:39:23.447Z,8.80
2018-05-27T10:41:50.253Z,6.60
2018-05-27T10:44:17.015Z,7.70
2018-05-27T10:46:43.735Z,6.40
2018-05-27T10:49:10.476Z,6.20
2018-05-27T10:51:37.182Z,5.47
2018-05-27T10:54:04.449Z,5.73
2018-05-27T10:56:31.159Z,5.77
2018-05-27T10:58:57.878Z,6.00
2018-05-27T11:01:24.627Z,6.07
2018-05-27T11:03:51.420Z,8.73
2018-05-27T11:06:18.136Z,6.13
2018-05-27T11:08:44.857Z,6.47
2018-05-27T11:11:11.643Z,5.90
2018-05-27T11:13:38.371Z,5.40
2018-05-27T11:16:05.136Z,5.93
2018-05-27T11:18:31.860Z,6.10
2018-05-27T11:20:58.612Z,5.43
2018-05-27T11:23:25.444Z,5.33
2018-05-27T11:25:52.191Z,6.27
2018-05-27T11:28:18.915Z,6.40
2018-05-27T11:30:45.647Z,5.63
2018-05-27T11:33:12.373Z,5.23
2018-05-27T11:35:39.088Z,4.90
2018-05-27T11:38:05.815Z,5.07
2018-05-27T11:40:32.619Z,5.50
2018-05-27T11:42:59.335Z,4.73
2018-05-27T11:45:26.103Z,5.33
2018-05-27T11:47:52.835Z,4.97
2018-05-27T11:50:19.548Z,4.87
2018-05-27T11:52:46.281Z,4.80
2018-05-27T11:55:13.466Z,4.77
2018-05-27T11:57:40.186Z,15.87
2018-05-27T12:00:06.958Z,17.40
2018-05-27T12:02:33.728Z,4.57
2018-05-27T12:05:00.476Z,4.40
2018-05-27T12:07:27.288Z,4.27
2018-05-27T12:09:54.010Z,4.20
2018-05-27T12:12:20.787Z,4.53
2018-05-27T12:14:47.604Z,4.20
2018-05-27T12:17:14.628Z,4.17
2018-05-27T12:19:41.352Z,4.30
2018-05-27T12:22:08.113Z,3.97
2018-05-27T12:24:34.859Z,3.50
2018-05-27T12:27:01.629Z,3.30
2018-05-27T12:29:28.396Z,3.80
2018-05-27T12:31:55.220Z,3.57
2018-05-27T12:34:21.975Z,3.50
2018-05-27T12:36:48.790Z,3.50
2018-05-27T12:39:15.539Z,3.62
2018-05-27T12:41:42.259Z,3.45
2018-05-27T12:44:09.188Z,3.42
2018-05-27T12:46:35.943Z,3.53
2018-05-27T12:49:02.680Z,3.42
2018-05-27T12:51:29.541Z,3.08
2018-05-27T12:53:56.360Z,3.65
2018-05-27T12:56:23.075Z,3.67
2018-05-27T12:58:49.840Z,3.67
2018-05-27T13:01:16.560Z,3.55
2018-05-27T13:03:43.271Z,3.35
2018-05-27T13:06:09.996Z,3.80
2018-05-27T13:08:36.816Z,3.70
2018-05-27T13:11:03.632Z,3.20
2018-05-27T13:13:30.371Z,3.78
2018-05-27T13:15:57.132Z,3.87
2018-05-27T13:18:23.857Z,3.70
2018-05-27T13:20:51.128Z,3.42
2018-05-27T13:23:17.860Z,3.37
2018-05-27T13:25:44.576Z,3.62
2018-05-27T13:28:11.304Z,3.40
2018-05-27T13:30:38.024Z,3.28
2018-05-27T13:33:04.740Z,3.75
2018-05-27T13:35:31.556Z,3.33
2018-05-27T13:37:58.366Z,3.72
2018-05-27T13:40:25.124Z,3.62
2018-05-27T13:42:51.923Z,3.72
2018-05-27T13:45:18.652Z,3.70
2018-05-27T13:47:45.478Z,3.87
2018-05-27T13:50:12.217Z,3.45
2018-05-27T13:52:38.936Z,3.40
2018-05-27T13:55:05.679Z,3.95
2018-05-27T13:57:32.404Z,3.95
2018-05-27T13:59:59.127Z,3.72
2018-05-27T14:02:25.862Z,3.65
2018-05-27T14:04:52.635Z,3.70
2018-05-27T14:07:19.351Z,3.33
2018-05-27T14:09:46.143Z,3.50
2018-05-27T14:12:12.873Z,3.60
2018-05-27T14:14:39.625Z,3.37
2018-05-27T14:17:06.394Z,3.80
2018-05-27T14:19:33.200Z,4.05
2018-05-27T14:22:00.027Z,3.60
2018-05-27T14:24:26.742Z,3.60
2018-05-27T14:26:53.522Z,9.57
2018-05-27T14:29:20.296Z,4.40
2018-05-27T14:31:47.032Z,3.72
2018-05-27T14:34:13.762Z,3.40
2018-05-27T14:36:40.582Z,3.45
2018-05-27T14:39:07.298Z,3.42
2018-05-27T14:41:34.049Z,3.33
2018-05-27T14:44:00.776Z,3.60
2018-05-27T14:46:27.527Z,3.53
2018-05-27T14:48:54.273Z,3.80
2018-05-27T14:51:21.000Z,3.50
2018-05-27T14:53:47.747Z,3.20
2018-05-27T14:56:14.500Z,3.12
2018-05-27T14:58:41.359Z,3.22
2018-05-27T15:01:08.175Z,3.20
2018-05-27T15:03:34.913Z,3.33
2018-05-27T15:06:01.668Z,3.08
2018-05-27T15:08:28.427Z,3.00
2018-05-27T15:10:55.184Z,3.20
2018-05-27T15:13:21.915Z,3.25
2018-05-27T15:15:48.642Z,3.10
2018-05-27T15:18:15.370Z,3.15
2018-05-27T15:20:42.194Z,3.50
2018-05-27T15:23:08.965Z,3.25
2018-05-27T15:25:35.696Z,3.67
2018-05-27T15:28:02.412Z,3.60
2018-05-27T15:30:29.133Z,3.37
2018-05-27T15:32:55.911Z,17.73
2018-05-27T15:35:22.768Z,8.18
2018-05-27T15:37:49.584Z,2.78
2018-05-27T15:40:16.324Z,3.83
2018-05-27T15:42:43.042Z,3.80
2018-05-27T15:45:09.811Z,3.45
2018-05-27T15:47:36.546Z,3.20
2018-05-27T15:50:03.302Z,3.20
2018-05-27T15:52:30.052Z,3.23
2018-05-27T15:54:56.792Z,3.67
2018-05-27T15:57:23.512Z,4.03
2018-05-27T15:59:50.304Z,3.60
2018-05-27T16:02:17.060Z,3.20
2018-05-27T16:04:43.825Z,3.67
2018-05-27T16:07:10.561Z,4.10
2018-05-27T16:09:37.308Z,31.43
2018-05-27T16:12:04.171Z,8.10
2018-05-27T16:14:30.923Z,5.47
2018-05-27T16:16:57.677Z,3.90
2018-05-27T16:19:24.471Z,4.70
2018-05-27T16:21:51.183Z,4.87
2018-05-27T16:24:17.961Z,36.40
2018-05-27T16:26:44.673Z,5.77
2018-05-27T16:29:11.387Z,4.90
2018-05-27T16:31:38.133Z,4.77
2018-05-27T16:34:04.950Z,5.13
2018-05-27T16:36:31.826Z,5.37
2018-05-27T16:38:58.561Z,4.60
2018-05-27T16:41:25.301Z,5.07
2018-05-27T16:43:52.028Z,4.60
2018-05-27T16:46:18.787Z,4.80
2018-05-27T16:48:45.602Z,4.47
2018-05-27T16:51:12.323Z,4.93
2018-05-27T16:53:39.131Z,5.20
2018-05-27T16:56:05.874Z,5.13
2018-05-27T16:58:32.611Z,5.47
2018-05-27T17:00:59.344Z,4.80
2018-05-27T17:03:26.096Z,4.70
2018-05-27T17:05:52.817Z,5.00
2018-05-27T17:08:20.309Z,4.80
2018-05-27T17:10:47.071Z,5.40
2018-05-27T17:13:13.919Z,5.13
2018-05-27T17:15:40.711Z,5.10
2018-05-27T17:18:07.457Z,5.07
2018-05-27T17:20:34.209Z,5.03
2018-05-27T17:23:01.004Z,4.73
2018-05-27T17:25:27.732Z,4.40
2018-05-27T17:27:54.588Z,4.77
2018-05-27T17:30:21.276Z,5.30
2018-05-27T17:32:48.004Z,4.53
2018-05-27T17:35:14.802Z,5.10
2018-05-27T17:37:45.852Z,5.23
2018-05-27T17:40:14.846Z,4.83
2018-05-27T17:42:41.715Z,4.60
2018-05-27T17:45:10.166Z,4.07
2018-05-27T17:47:40.165Z,4.10
2018-05-27T17:50:06.892Z,3.93
2018-05-27T17:52:33.667Z,3.70
2018-05-27T17:55:00.380Z,3.20
2018-05-27T17:57:27.152Z,42.83
2018-05-27T17:59:54.788Z,5.40
2018-05-27T18:02:23.049Z,22.57
2018-05-27T18:07:30.387Z,3.10
2018-05-27T18:09:57.606Z,3.97
2018-05-27T18:12:27.839Z,2.87
2018-05-27T18:14:56.576Z,4.57
2018-05-27T18:17:25.215Z,4.77
2018-05-27T18:19:52.025Z,11.50
2018-05-27T18:22:21.377Z,3.60
2018-05-27T18:24:48.991Z,3.00
2018-05-27T18:27:15.721Z,6.60
2018-05-27T18:29:44.687Z,11.50
2018-05-27T18:32:11.437Z,11.43
2018-05-27T18:34:38.193Z,4.50
2018-05-27T18:37:06.544Z,3.93
2018-05-27T18:39:34.116Z,3.33
2018-05-27T18:42:02.013Z,3.20
2018-05-27T18:44:28.844Z,2.70
2018-05-27T18:46:56.272Z,3.07
2018-05-27T18:49:23.904Z,2.80
2018-05-27T18:51:50.748Z,3.23
2018-05-27T18:54:20.898Z,3.03
2018-05-27T18:56:47.708Z,3.33
2018-05-27T18:59:14.459Z,3.60
2018-05-27T19:01:41.208Z,3.20
2018-05-27T19:04:08.202Z,2.97
2018-05-27T19:06:35.499Z,3.70
2018-05-27T19:09:02.317Z,3.47
2018-05-27T19:11:29.636Z,3.83
2018-05-27T19:13:56.484Z,3.70
2018-05-27T19:16:23.206Z,3.87
2018-05-27T19:18:49.939Z,3.10
2018-05-27T19:21:16.671Z,4.07
2018-05-27T19:23:43.414Z,27.63
2018-05-27T19:26:11.173Z,4.10
2018-05-27T19:28:37.945Z,3.70
2018-05-27T19:31:04.698Z,3.77
2018-05-27T19:33:31.438Z,4.17
2018-05-27T19:35:58.216Z,3.67
2018-05-27T19:38:24.951Z,3.80
2018-05-27T19:40:51.687Z,3.43
2018-05-27T19:43:18.442Z,3.70
2018-05-27T19:45:45.194Z,3.47
2018-05-27T19:48:11.983Z,3.20
2018-05-27T19:50:38.748Z,3.97
2018-05-27T19:53:05.564Z,3.37
2018-05-27T19:55:32.292Z,3.20
2018-05-27T19:57:59.072Z,3.60
2018-05-27T20:00:25.828Z,3.60
2018-05-27T20:02:52.566Z,4.50
2018-05-27T20:05:19.305Z,6.73
2018-05-27T20:07:46.236Z,5.50
2018-05-27T20:10:13.326Z,4.53
2018-05-27T20:12:40.064Z,3.70
2018-05-27T20:15:06.825Z,3.63
2018-05-27T20:17:33.539Z,3.90
2018-05-27T20:20:00.315Z,4.10
2018-05-27T20:22:27.059Z,3.90
2018-05-27T20:24:53.903Z,3.80
2018-05-27T20:27:20.643Z,3.53
2018-05-27T20:29:47.375Z,3.67
2018-05-27T20:32:14.105Z,4.47
2018-05-27T20:34:41.069Z,4.00
2018-05-27T20:37:07.819Z,3.80
2018-05-27T20:39:34.539Z,3.90
2018-05-27T20:42:01.368Z,3.63
2018-05-27T20:44:28.140Z,4.27
2018-05-27T20:46:54.886Z,3.80
2018-05-27T20:49:21.620Z,4.07
2018-05-27T20:51:48.448Z,4.90
2018-05-27T20:54:15.196Z,4.50
2018-05-27T20:56:41.970Z,4.27
2018-05-27T20:59:08.688Z,3.87
2018-05-27T21:01:35.423Z,4.57
2018-05-27T21:04:02.155Z,4.37
2018-05-27T21:06:28.994Z,4.67
2018-05-27T21:08:55.738Z,4.27
2018-05-27T21:11:22.475Z,4.23
2018-05-27T21:13:49.415Z,4.60
2018-05-27T21:16:16.135Z,4.00
2018-05-27T21:18:42.863Z,4.30
2018-05-27T21:21:09.591Z,4.27
2018-05-27T21:23:37.299Z,4.30
2018-05-27T21:26:04.048Z,3.60
2018-05-27T21:28:30.846Z,4.60
2018-05-27T21:30:57.702Z,3.47
2018-05-27T21:33:24.550Z,4.17
2018-05-27T21:35:51.417Z,4.40
2018-05-27T21:38:18.258Z,4.40
2018-05-27T21:40:45.488Z,3.80
2018-05-27T21:43:12.232Z,4.20
2018-05-27T21:45:38.944Z,4.73
2018-05-27T21:48:05.684Z,5.73
2018-05-27T21:50:32.431Z,5.03
2018-05-27T21:52:59.184Z,5.93
2018-05-27T21:55:25.908Z,6.00
2018-05-27T21:57:52.640Z,6.73
2018-05-27T22:00:19.376Z,6.67
2018-05-27T22:02:46.115Z,6.20
2018-05-27T22:05:12.832Z,6.20
2018-05-27T22:07:39.673Z,6.90
2018-05-27T22:10:06.488Z,6.73
2018-05-27T22:12:33.850Z,6.90
2018-05-27T22:15:00.580Z,6.27
2018-05-27T22:17:27.345Z,6.47
2018-05-27T22:19:54.083Z,6.60
2018-05-27T22:22:20.817Z,7.10
2018-05-27T22:24:47.571Z,6.67
2018-05-27T22:27:14.317Z,7.17
2018-05-27T22:29:41.047Z,8.17
2018-05-27T22:32:07.789Z,7.33
2018-05-27T22:34:34.512Z,7.97
2018-05-27T22:37:01.235Z,7.53
2018-05-27T22:39:27.968Z,8.20
2018-05-27T22:41:54.689Z,8.23
2018-05-27T22:44:21.422Z,9.17
2018-05-27T22:46:48.169Z,9.00
2018-05-27T22:49:14.886Z,8.93
2018-05-27T22:51:41.609Z,9.07
2018-05-27T22:54:08.405Z,9.00
2018-05-27T22:56:35.147Z,8.73
2018-05-27T22:59:01.937Z,9.30
2018-05-27T23:01:28.668Z,8.37
2018-05-27T23:03:55.392Z,9.23
2018-05-27T23:06:22.109Z,8.87
2018-05-27T23:08:48.844Z,9.23
2018-05-27T23:11:15.603Z,9.30
2018-05-27T23:13:42.297Z,8.67
2018-05-27T23:16:09.037Z,9.20
2018-05-27T23:18:35.760Z,9.20
2018-05-27T23:21:02.499Z,8.43
2018-05-27T23:23:29.236Z,8.50
2018-05-27T23:25:55.960Z,8.70
2018-05-27T23:28:22.684Z,8.40
2018-05-27T23:30:49.419Z,8.53
2018-05-27T23:33:16.139Z,8.47
2018-05-27T23:35:42.871Z,7.83
2018-05-27T23:38:09.600Z,7.10
2018-05-27T23:40:36.361Z,7.60
2018-05-27T23:43:03.079Z,7.53
2018-05-27T23:45:29.809Z,7.60
2018-05-27T23:47:56.541Z,8.00
2018-05-27T23:50:23.257Z,7.93
2018-05-27T23:52:50.417Z,6.90
2018-05-27T23:55:17.199Z,8.07
2018-05-27T23:57:43.948Z,7.57
